Pagrindinis puslapis
METAR-TAF:

METAR-TAF

Oro uostai :

Platinum, Aliaska, Jungtinės Amerikos Valstijos

platuma: 59-01N, ilguma: 161-49W, Aukštis: 3 m

Dabartinis oras

Ataskaita buvo paskelbta 36 minutes, ne 02:04 UTC
Vėjas 10 kt iš Vakarų/Pietvakarių
Temperatūra 9°C
Drėgmė 87%
Slėgis 1004 hPa
Matomumas: 16.1 km
Mažai debesys ne aukštis 1600 ft
Su prošvaistėmis ne aukštis 3800 ft
Apsiniaukę ne aukštis 4800 ft
lietus

METAR: PAPM 190204Z AUTO 24010KT 10SM -RA FEW016 BKN038 OVC048 09/07 A2965 RMK AO2 P0000

Laikas: 18:40 (02:40 UTC)


TAF: trūkstamas

Orai ataskaitas ir orų prognozės (METAR, TAF).

turimą stotys yra geltonos ir raudonos taškus žemėlapyje.

Perkelti pele per norėdami pamatyti stoties vardą.

Tada spustelėkite, norėdami matyti oro stebėjimo ir prognozės.

Norėdami pakeisti žemėlapį: spustelėkite ant žalios mygtukų su juodo kryžiaus žemyn,; žalią mygtuką su brūkšneliu, jei norite nutolinti; arba žalių rodyklių gretimoms žemėlapius.


METAR-TAF: